TGW640 WSSS-VTSM
Flight info
| Callsign | TGW640 |
|---|---|
| Flight time | 1h 28m |
| Altitude | 38000 |
| Route | VMR9B VMR B469 VPK M751 VKB M626 IKOGA Y95 RUMVA |
| Aircraft | A20N/M-SDE2FGHIRWYZ/LB1 |
Departure
| Time | 2026-04-16 04:02 |
|---|---|
| Airport | Singapore Changi Airport (WSSS) |
Arrival
| Time | 2026-04-16 05:30 |
|---|---|
| Airport | Samui International Airport (VTSM) |
| Time | Latitude | Longitude | Altitude | Speed | Heading |
|---|---|---|---|---|---|
| 2026-04-16 03:37 | 1.36058 | 103.99242 | 32 ft | 0 kts | 292° |
| 2026-04-16 03:53 | 1.36057 | 103.99244 | 32 ft | 2 kts | 292° |
| 2026-04-16 03:54 | 1.36052 | 103.99257 | 33 ft | 2 kts | 294° |
| 2026-04-16 03:54 | 1.36046 | 103.99269 | 32 ft | 2 kts | 295° |
| 2026-04-16 03:54 | 1.36041 | 103.99281 | 34 ft | 2 kts | 298° |
| 2026-04-16 03:54 | 1.36033 | 103.99295 | 34 ft | 2 kts | 303° |
| 2026-04-16 03:55 | 1.36023 | 103.99308 | 33 ft | 2 kts | 319° |
| 2026-04-16 03:55 | 1.36009 | 103.99315 | 32 ft | 2 kts | 7° |
| 2026-04-16 03:55 | 1.35999 | 103.99313 | 32 ft | 1 kts | 22° |
| 2026-04-16 03:55 | 1.35998 | 103.99313 | 32 ft | 0 kts | 22° |
| 2026-04-16 03:57 | 1.36017 | 103.99321 | 32 ft | 5 kts | 22° |
| 2026-04-16 03:57 | 1.36061 | 103.99338 | 32 ft | 8 kts | 22° |
| 2026-04-16 03:58 | 1.36124 | 103.99366 | 32 ft | 11 kts | 23° |
| 2026-04-16 03:58 | 1.36204 | 103.99399 | 31 ft | 14 kts | 22° |
| 2026-04-16 03:58 | 1.36268 | 103.99432 | 31 ft | 10 kts | 41° |
| 2026-04-16 03:58 | 1.36310 | 103.99482 | 32 ft | 8 kts | 53° |
| 2026-04-16 03:59 | 1.36333 | 103.99533 | 32 ft | 9 kts | 91° |
| 2026-04-16 03:59 | 1.36313 | 103.99585 | 32 ft | 7 kts | 113° |
| 2026-04-16 03:59 | 1.36297 | 103.99623 | 32 ft | 4 kts | 112° |
| 2026-04-16 03:59 | 1.36283 | 103.99656 | 32 ft | 7 kts | 112° |
| 2026-04-16 04:00 | 1.36265 | 103.99698 | 32 ft | 7 kts | 113° |
| 2026-04-16 04:00 | 1.36252 | 103.99730 | 32 ft | 8 kts | 113° |
| 2026-04-16 04:00 | 1.36226 | 103.99792 | 31 ft | 11 kts | 112° |
| 2026-04-16 04:00 | 1.36195 | 103.99852 | 30 ft | 10 kts | 130° |
| 2026-04-16 04:01 | 1.36128 | 103.99869 | 30 ft | 11 kts | 193° |
| 2026-04-16 04:01 | 1.36077 | 103.99849 | 30 ft | 31 kts | 201° |
| 2026-04-16 04:01 | 1.35653 | 103.99673 | 33 ft | 99 kts | 204° |
| 2026-04-16 04:01 | 1.34847 | 103.99333 | 33 ft | 150 kts | 202° |
| 2026-04-16 04:02 | 1.33814 | 103.98886 | 430 ft | 158 kts | 201° |
| 2026-04-16 04:02 | 1.32807 | 103.98451 | 1025 ft | 161 kts | 201° |
| 2026-04-16 04:02 | 1.31757 | 103.98018 | 1627 ft | 167 kts | 200° |
| 2026-04-16 04:02 | 1.30654 | 103.97594 | 2176 ft | 171 kts | 199° |
| 2026-04-16 04:03 | 1.29464 | 103.97357 | 2579 ft | 183 kts | 172° |
| 2026-04-16 04:03 | 1.28276 | 103.97924 | 2902 ft | 204 kts | 135° |
| 2026-04-16 04:03 | 1.27526 | 103.99202 | 3279 ft | 227 kts | 106° |
| 2026-04-16 04:03 | 1.27539 | 104.00840 | 3753 ft | 248 kts | 73° |
| 2026-04-16 04:04 | 1.28432 | 104.02326 | 4501 ft | 255 kts | 45° |
| 2026-04-16 04:04 | 1.29993 | 104.03284 | 4976 ft | 277 kts | 16° |
| 2026-04-16 04:04 | 1.31931 | 104.03455 | 5708 ft | 284 kts | 355° |
| 2026-04-16 04:04 | 1.33897 | 104.03203 | 6576 ft | 287 kts | 350° |
| 2026-04-16 04:05 | 1.35882 | 104.02877 | 7399 ft | 290 kts | 350° |
| 2026-04-16 04:05 | 1.37894 | 104.02589 | 8210 ft | 294 kts | 352° |
| 2026-04-16 04:05 | 1.39942 | 104.02354 | 9045 ft | 298 kts | 353° |
| 2026-04-16 04:05 | 1.42001 | 104.02031 | 9861 ft | 301 kts | 345° |
| 2026-04-16 04:06 | 1.44033 | 104.01404 | 10419 ft | 314 kts | 341° |
| 2026-04-16 04:06 | 1.46184 | 104.00699 | 10678 ft | 337 kts | 341° |
| 2026-04-16 04:06 | 1.48478 | 103.99953 | 11043 ft | 353 kts | 341° |
| 2026-04-16 04:06 | 1.50825 | 103.99194 | 11746 ft | 356 kts | 341° |
| 2026-04-16 04:07 | 1.53158 | 103.98441 | 12477 ft | 358 kts | 341° |
| 2026-04-16 04:07 | 1.57947 | 103.96894 | 13889 ft | 365 kts | 342° |
| 2026-04-16 04:07 | 1.60371 | 103.96111 | 14490 ft | 368 kts | 342° |
| 2026-04-16 04:08 | 1.62824 | 103.95319 | 15083 ft | 372 kts | 342° |
| 2026-04-16 04:08 | 1.65297 | 103.94520 | 15680 ft | 376 kts | 342° |
| 2026-04-16 04:08 | 1.67720 | 103.93737 | 16241 ft | 379 kts | 342° |
| 2026-04-16 04:08 | 1.70315 | 103.92898 | 16847 ft | 382 kts | 342° |
| 2026-04-16 04:09 | 1.72864 | 103.92074 | 17416 ft | 386 kts | 342° |
| 2026-04-16 04:09 | 1.75465 | 103.91366 | 17979 ft | 389 kts | 348° |
| 2026-04-16 04:09 | 1.78156 | 103.91007 | 18488 ft | 393 kts | 356° |
| 2026-04-16 04:09 | 1.80898 | 103.90849 | 18972 ft | 395 kts | 356° |
| 2026-04-16 04:10 | 1.83657 | 103.90680 | 19452 ft | 398 kts | 356° |
| 2026-04-16 04:10 | 1.86434 | 103.90503 | 19929 ft | 401 kts | 356° |
| 2026-04-16 04:10 | 1.89232 | 103.90324 | 20388 ft | 405 kts | 356° |
| 2026-04-16 04:10 | 1.92051 | 103.90143 | 20868 ft | 407 kts | 356° |
| 2026-04-16 04:11 | 1.94892 | 103.89962 | 21341 ft | 411 kts | 356° |
| 2026-04-16 04:11 | 1.97758 | 103.89779 | 21796 ft | 414 kts | 356° |
| 2026-04-16 04:11 | 2.00639 | 103.89596 | 22232 ft | 417 kts | 356° |
| 2026-04-16 04:11 | 2.03550 | 103.89410 | 22701 ft | 420 kts | 356° |
| 2026-04-16 04:12 | 2.06441 | 103.89227 | 23118 ft | 424 kts | 356° |
| 2026-04-16 04:12 | 2.09395 | 103.89039 | 23537 ft | 427 kts | 356° |
| 2026-04-16 04:12 | 2.12372 | 103.88849 | 23925 ft | 429 kts | 356° |
| 2026-04-16 04:12 | 2.15358 | 103.88659 | 24308 ft | 431 kts | 356° |
| 2026-04-16 04:13 | 2.18357 | 103.88468 | 24677 ft | 433 kts | 356° |
| 2026-04-16 04:13 | 2.21379 | 103.88276 | 25041 ft | 436 kts | 357° |
| 2026-04-16 04:13 | 2.24411 | 103.88083 | 25404 ft | 438 kts | 357° |
| 2026-04-16 04:13 | 2.27460 | 103.87889 | 25766 ft | 440 kts | 357° |
| 2026-04-16 04:14 | 2.30522 | 103.87694 | 26124 ft | 442 kts | 357° |
| 2026-04-16 04:14 | 2.33601 | 103.87498 | 26468 ft | 444 kts | 357° |
| 2026-04-16 04:14 | 2.36681 | 103.87177 | 26792 ft | 447 kts | 351° |
| 2026-04-16 04:14 | 2.39721 | 103.86483 | 27117 ft | 450 kts | 344° |
| 2026-04-16 04:15 | 2.42633 | 103.85436 | 27441 ft | 453 kts | 337° |
| 2026-04-16 04:15 | 2.45542 | 103.84100 | 27742 ft | 455 kts | 336° |
| 2026-04-16 04:15 | 2.48387 | 103.82793 | 28027 ft | 458 kts | 336° |
| 2026-04-16 04:15 | 2.51288 | 103.81467 | 28347 ft | 459 kts | 336° |
| 2026-04-16 04:16 | 2.54202 | 103.80137 | 28638 ft | 461 kts | 336° |
| 2026-04-16 04:16 | 2.57126 | 103.78801 | 28928 ft | 463 kts | 336° |
| 2026-04-16 04:16 | 2.60064 | 103.77458 | 29205 ft | 466 kts | 336° |
| 2026-04-16 04:16 | 2.63018 | 103.76107 | 29491 ft | 468 kts | 336° |
| 2026-04-16 04:17 | 2.65984 | 103.74751 | 29769 ft | 470 kts | 336° |
| 2026-04-16 04:17 | 2.68962 | 103.73388 | 30031 ft | 472 kts | 336° |
| 2026-04-16 04:17 | 2.71955 | 103.72019 | 30262 ft | 474 kts | 336° |
| 2026-04-16 04:17 | 2.74964 | 103.70650 | 30500 ft | 476 kts | 336° |
| 2026-04-16 04:18 | 2.77993 | 103.69293 | 30720 ft | 478 kts | 336° |
| 2026-04-16 04:18 | 2.81041 | 103.67933 | 30961 ft | 480 kts | 336° |
| 2026-04-16 04:18 | 2.84092 | 103.66572 | 31246 ft | 481 kts | 336° |
| 2026-04-16 04:18 | 2.87151 | 103.65205 | 31546 ft | 481 kts | 336° |
| 2026-04-16 04:19 | 2.90208 | 103.63837 | 31853 ft | 481 kts | 336° |
| 2026-04-16 04:19 | 2.93268 | 103.62473 | 32174 ft | 481 kts | 336° |
| 2026-04-16 04:19 | 2.96318 | 103.61117 | 32504 ft | 480 kts | 336° |
| 2026-04-16 04:19 | 2.99369 | 103.59761 | 32827 ft | 479 kts | 336° |
| 2026-04-16 04:20 | 3.02413 | 103.58408 | 33139 ft | 478 kts | 336° |
| 2026-04-16 04:20 | 3.05451 | 103.57056 | 33463 ft | 477 kts | 336° |
| 2026-04-16 04:20 | 3.08479 | 103.55709 | 33778 ft | 476 kts | 336° |
| 2026-04-16 04:20 | 3.11502 | 103.54364 | 34064 ft | 475 kts | 336° |
| 2026-04-16 04:21 | 3.14513 | 103.53024 | 34343 ft | 473 kts | 336° |
| 2026-04-16 04:21 | 3.17513 | 103.51686 | 34615 ft | 472 kts | 336° |
| 2026-04-16 04:21 | 3.20423 | 103.50379 | 34855 ft | 471 kts | 336° |
| 2026-04-16 04:21 | 3.23414 | 103.49031 | 35106 ft | 470 kts | 335° |
| 2026-04-16 04:22 | 3.26392 | 103.47689 | 35340 ft | 469 kts | 335° |
| 2026-04-16 04:22 | 3.29367 | 103.46349 | 35569 ft | 469 kts | 335° |
| 2026-04-16 04:22 | 3.32338 | 103.45012 | 35790 ft | 468 kts | 335° |
| 2026-04-16 04:22 | 3.35309 | 103.43675 | 36025 ft | 468 kts | 336° |
| 2026-04-16 04:23 | 3.38234 | 103.42359 | 36243 ft | 467 kts | 336° |
| 2026-04-16 04:23 | 3.41213 | 103.41060 | 36455 ft | 467 kts | 338° |
| 2026-04-16 04:23 | 3.44238 | 103.39858 | 36659 ft | 467 kts | 339° |
| 2026-04-16 04:23 | 3.47270 | 103.38686 | 36851 ft | 467 kts | 339° |
| 2026-04-16 04:24 | 3.50300 | 103.37511 | 37049 ft | 467 kts | 339° |
| 2026-04-16 04:24 | 3.53323 | 103.36327 | 37244 ft | 467 kts | 339° |
| 2026-04-16 04:24 | 3.56345 | 103.35134 | 37412 ft | 467 kts | 338° |
| 2026-04-16 04:24 | 3.59369 | 103.33935 | 37583 ft | 467 kts | 338° |
| 2026-04-16 04:25 | 3.62390 | 103.32735 | 37740 ft | 467 kts | 338° |
| 2026-04-16 04:25 | 3.65413 | 103.31533 | 37885 ft | 468 kts | 338° |
| 2026-04-16 04:25 | 3.71446 | 103.29135 | 37886 ft | 466 kts | 338° |
| 2026-04-16 04:26 | 3.77486 | 103.26734 | 37884 ft | 466 kts | 338° |
| 2026-04-16 04:26 | 3.83525 | 103.24333 | 37884 ft | 466 kts | 338° |
| 2026-04-16 04:27 | 3.89515 | 103.21952 | 37883 ft | 467 kts | 338° |
| 2026-04-16 04:27 | 3.95552 | 103.19551 | 37893 ft | 467 kts | 338° |
| 2026-04-16 04:28 | 4.01594 | 103.17148 | 37892 ft | 468 kts | 338° |
| 2026-04-16 04:28 | 4.07648 | 103.14740 | 37899 ft | 468 kts | 338° |
| 2026-04-16 04:29 | 4.13670 | 103.12344 | 37899 ft | 468 kts | 338° |
| 2026-04-16 04:29 | 4.19649 | 103.09965 | 37909 ft | 469 kts | 338° |
| 2026-04-16 04:30 | 4.25696 | 103.07559 | 37897 ft | 466 kts | 338° |
| 2026-04-16 04:30 | 4.31725 | 103.05159 | 37897 ft | 466 kts | 338° |
| 2026-04-16 04:31 | 4.37742 | 103.02764 | 37900 ft | 466 kts | 338° |
| 2026-04-16 04:31 | 4.43764 | 103.00366 | 37902 ft | 465 kts | 338° |
| 2026-04-16 04:32 | 4.49774 | 102.97972 | 37902 ft | 465 kts | 338° |
| 2026-04-16 04:32 | 4.55787 | 102.95578 | 37903 ft | 465 kts | 338° |
| 2026-04-16 04:33 | 4.61794 | 102.93184 | 37904 ft | 465 kts | 338° |
| 2026-04-16 04:33 | 4.67793 | 102.90794 | 37905 ft | 464 kts | 338° |
| 2026-04-16 04:34 | 4.73808 | 102.88397 | 37902 ft | 464 kts | 338° |
| 2026-04-16 04:34 | 4.79783 | 102.86015 | 37904 ft | 464 kts | 338° |
| 2026-04-16 04:35 | 4.85786 | 102.83622 | 37902 ft | 464 kts | 338° |
| 2026-04-16 04:35 | 4.91785 | 102.81234 | 37899 ft | 464 kts | 338° |
| 2026-04-16 04:36 | 4.97787 | 102.78850 | 37897 ft | 464 kts | 338° |
| 2026-04-16 04:36 | 5.03781 | 102.76467 | 37899 ft | 464 kts | 338° |
| 2026-04-16 04:37 | 5.09779 | 102.74082 | 37899 ft | 464 kts | 338° |
| 2026-04-16 04:37 | 5.15778 | 102.71696 | 37894 ft | 464 kts | 338° |
| 2026-04-16 04:38 | 5.21771 | 102.69311 | 37892 ft | 464 kts | 338° |
| 2026-04-16 04:38 | 5.27761 | 102.66892 | 37897 ft | 464 kts | 338° |
| 2026-04-16 04:39 | 5.33705 | 102.64485 | 37896 ft | 464 kts | 338° |
| 2026-04-16 04:39 | 5.39694 | 102.62078 | 37889 ft | 464 kts | 338° |
| 2026-04-16 04:40 | 5.45693 | 102.59689 | 37895 ft | 464 kts | 338° |
| 2026-04-16 04:40 | 5.51686 | 102.57298 | 37893 ft | 464 kts | 338° |
| 2026-04-16 04:41 | 5.57686 | 102.54902 | 37887 ft | 464 kts | 338° |
| 2026-04-16 04:41 | 5.63680 | 102.52505 | 37882 ft | 464 kts | 338° |
| 2026-04-16 04:42 | 5.69675 | 102.50107 | 37886 ft | 464 kts | 338° |
| 2026-04-16 04:42 | 5.75676 | 102.47706 | 37886 ft | 464 kts | 338° |
| 2026-04-16 04:43 | 5.81679 | 102.45305 | 37886 ft | 464 kts | 338° |
| 2026-04-16 04:43 | 5.87686 | 102.42901 | 37891 ft | 465 kts | 338° |
| 2026-04-16 04:44 | 5.93692 | 102.40497 | 37886 ft | 465 kts | 338° |
| 2026-04-16 04:44 | 5.99702 | 102.38091 | 37889 ft | 465 kts | 338° |
| 2026-04-16 04:45 | 6.05724 | 102.35679 | 37889 ft | 466 kts | 338° |
| 2026-04-16 04:45 | 6.11742 | 102.33268 | 37887 ft | 466 kts | 338° |
| 2026-04-16 04:46 | 6.17672 | 102.30755 | 37889 ft | 465 kts | 332° |
| 2026-04-16 04:46 | 6.23431 | 102.27779 | 37885 ft | 465 kts | 332° |
| 2026-04-16 04:47 | 6.29195 | 102.24819 | 37886 ft | 465 kts | 332° |
| 2026-04-16 04:47 | 6.34956 | 102.21861 | 37887 ft | 465 kts | 332° |
| 2026-04-16 04:48 | 6.40715 | 102.18901 | 37891 ft | 465 kts | 332° |
| 2026-04-16 04:48 | 6.46478 | 102.15938 | 37889 ft | 465 kts | 332° |
| 2026-04-16 04:49 | 6.52233 | 102.12978 | 37890 ft | 465 kts | 332° |
| 2026-04-16 04:49 | 6.57997 | 102.10013 | 37890 ft | 464 kts | 332° |
| 2026-04-16 04:50 | 6.63732 | 102.07061 | 37893 ft | 464 kts | 332° |
| 2026-04-16 04:50 | 6.68537 | 102.04588 | 37894 ft | 464 kts | 332° |
| 2026-04-16 04:51 | 6.74298 | 102.01622 | 37895 ft | 464 kts | 332° |
| 2026-04-16 04:51 | 6.80021 | 101.98675 | 37899 ft | 464 kts | 332° |
| 2026-04-16 04:52 | 6.85790 | 101.95703 | 37900 ft | 464 kts | 332° |
| 2026-04-16 04:52 | 6.91505 | 101.92759 | 37898 ft | 464 kts | 332° |
| 2026-04-16 04:53 | 6.97273 | 101.89786 | 37898 ft | 464 kts | 332° |
| 2026-04-16 04:53 | 7.03026 | 101.86820 | 37898 ft | 464 kts | 332° |
| 2026-04-16 04:54 | 7.08779 | 101.83853 | 37901 ft | 464 kts | 332° |
| 2026-04-16 04:54 | 7.14526 | 101.80889 | 37900 ft | 464 kts | 332° |
| 2026-04-16 04:55 | 7.20239 | 101.77941 | 37898 ft | 464 kts | 332° |
| 2026-04-16 04:55 | 7.25983 | 101.74976 | 37899 ft | 464 kts | 332° |
| 2026-04-16 04:56 | 7.31730 | 101.72009 | 37895 ft | 464 kts | 332° |
| 2026-04-16 04:56 | 7.37481 | 101.69039 | 37897 ft | 464 kts | 332° |
| 2026-04-16 04:57 | 7.43226 | 101.66072 | 37896 ft | 464 kts | 332° |
| 2026-04-16 04:57 | 7.48975 | 101.63101 | 37897 ft | 464 kts | 332° |
| 2026-04-16 04:58 | 7.54724 | 101.60130 | 37897 ft | 464 kts | 332° |
| 2026-04-16 04:58 | 7.60474 | 101.57157 | 37900 ft | 464 kts | 332° |
| 2026-04-16 04:59 | 7.66137 | 101.54029 | 37898 ft | 463 kts | 325° |
| 2026-04-16 04:59 | 7.71299 | 101.50156 | 37895 ft | 463 kts | 321° |
| 2026-04-16 05:00 | 7.76388 | 101.46188 | 37897 ft | 463 kts | 321° |
| 2026-04-16 05:00 | 7.81447 | 101.42248 | 37894 ft | 463 kts | 321° |
| 2026-04-16 05:01 | 7.86541 | 101.38275 | 37900 ft | 463 kts | 321° |
| 2026-04-16 05:01 | 7.91639 | 101.34295 | 37894 ft | 463 kts | 321° |
| 2026-04-16 05:02 | 7.96706 | 101.30338 | 37877 ft | 462 kts | 321° |
| 2026-04-16 05:02 | 8.01736 | 101.26406 | 37898 ft | 455 kts | 322° |
| 2026-04-16 05:03 | 8.06766 | 101.22477 | 37898 ft | 458 kts | 321° |
| 2026-04-16 05:04 | 8.14311 | 101.16580 | 37901 ft | 457 kts | 321° |
| 2026-04-16 05:04 | 8.19316 | 101.12667 | 37893 ft | 457 kts | 321° |
| 2026-04-16 05:05 | 8.24346 | 101.08733 | 37901 ft | 457 kts | 321° |
| 2026-04-16 05:05 | 8.29379 | 101.04794 | 37909 ft | 458 kts | 321° |
| 2026-04-16 05:06 | 8.34416 | 101.00852 | 37889 ft | 457 kts | 321° |
| 2026-04-16 05:06 | 8.36926 | 100.98887 | 37583 ft | 456 kts | 321° |
| 2026-04-16 05:06 | 8.39445 | 100.96915 | 36885 ft | 459 kts | 321° |
| 2026-04-16 05:06 | 8.41988 | 100.94923 | 35947 ft | 466 kts | 321° |
| 2026-04-16 05:07 | 8.44575 | 100.92897 | 34892 ft | 475 kts | 321° |
| 2026-04-16 05:07 | 8.47206 | 100.90835 | 33891 ft | 480 kts | 321° |
| 2026-04-16 05:07 | 8.49850 | 100.88766 | 32651 ft | 482 kts | 321° |
| 2026-04-16 05:07 | 8.52485 | 100.86704 | 31870 ft | 474 kts | 321° |
| 2026-04-16 05:08 | 8.55077 | 100.84675 | 31044 ft | 470 kts | 321° |
| 2026-04-16 05:08 | 8.57643 | 100.82666 | 30446 ft | 465 kts | 321° |
| 2026-04-16 05:08 | 8.60210 | 100.80655 | 30033 ft | 469 kts | 321° |
| 2026-04-16 05:08 | 8.62796 | 100.78627 | 29401 ft | 470 kts | 321° |
| 2026-04-16 05:09 | 8.65372 | 100.76608 | 28815 ft | 467 kts | 321° |
| 2026-04-16 05:09 | 8.67922 | 100.74608 | 28241 ft | 462 kts | 321° |
| 2026-04-16 05:09 | 8.70412 | 100.72656 | 27669 ft | 457 kts | 321° |
| 2026-04-16 05:09 | 8.72905 | 100.70701 | 27106 ft | 452 kts | 321° |
| 2026-04-16 05:10 | 8.75377 | 100.68762 | 26539 ft | 447 kts | 321° |
| 2026-04-16 05:10 | 8.77823 | 100.66843 | 25974 ft | 443 kts | 321° |
| 2026-04-16 05:10 | 8.80250 | 100.64938 | 25407 ft | 439 kts | 321° |
| 2026-04-16 05:10 | 8.82657 | 100.63049 | 24827 ft | 437 kts | 321° |
| 2026-04-16 05:11 | 8.85050 | 100.61171 | 24263 ft | 434 kts | 321° |
| 2026-04-16 05:11 | 8.87409 | 100.59319 | 23720 ft | 431 kts | 321° |
| 2026-04-16 05:11 | 8.89775 | 100.57461 | 23101 ft | 428 kts | 322° |
| 2026-04-16 05:11 | 8.92110 | 100.55624 | 22595 ft | 422 kts | 322° |
| 2026-04-16 05:12 | 8.94410 | 100.53811 | 22059 ft | 417 kts | 322° |
| 2026-04-16 05:12 | 8.96683 | 100.52017 | 21517 ft | 413 kts | 322° |
| 2026-04-16 05:12 | 8.98949 | 100.50229 | 20987 ft | 409 kts | 322° |
| 2026-04-16 05:12 | 9.01186 | 100.48463 | 20441 ft | 406 kts | 322° |
| 2026-04-16 05:13 | 9.03399 | 100.46717 | 19911 ft | 403 kts | 322° |
| 2026-04-16 05:13 | 9.05609 | 100.44973 | 19375 ft | 400 kts | 322° |
| 2026-04-16 05:13 | 9.07775 | 100.43263 | 18842 ft | 398 kts | 322° |
| 2026-04-16 05:13 | 9.09965 | 100.41535 | 18299 ft | 396 kts | 322° |
| 2026-04-16 05:14 | 9.12128 | 100.39827 | 17722 ft | 393 kts | 322° |
| 2026-04-16 05:14 | 9.14260 | 100.38145 | 17265 ft | 387 kts | 322° |
| 2026-04-16 05:14 | 9.16388 | 100.36466 | 16697 ft | 385 kts | 322° |
| 2026-04-16 05:14 | 9.18459 | 100.34830 | 16194 ft | 381 kts | 322° |
| 2026-04-16 05:15 | 9.20537 | 100.33189 | 15687 ft | 378 kts | 322° |
| 2026-04-16 05:15 | 9.22629 | 100.31537 | 15169 ft | 375 kts | 322° |
| 2026-04-16 05:15 | 9.24678 | 100.29919 | 14656 ft | 372 kts | 322° |
| 2026-04-16 05:15 | 9.26688 | 100.28331 | 14136 ft | 371 kts | 322° |
| 2026-04-16 05:16 | 9.28877 | 100.26964 | 13487 ft | 371 kts | 339° |
| 2026-04-16 05:16 | 9.31355 | 100.26422 | 13108 ft | 361 kts | 359° |
| 2026-04-16 05:16 | 9.33827 | 100.26644 | 12656 ft | 355 kts | 11° |
| 2026-04-16 05:16 | 9.35963 | 100.27080 | 12315 ft | 349 kts | 13° |
| 2026-04-16 05:17 | 9.38333 | 100.27561 | 11850 ft | 346 kts | 11° |
| 2026-04-16 05:17 | 9.40686 | 100.27963 | 11559 ft | 336 kts | 9° |
| 2026-04-16 05:17 | 9.42933 | 100.28284 | 11382 ft | 317 kts | 8° |
| 2026-04-16 05:17 | 9.45065 | 100.28554 | 11066 ft | 304 kts | 8° |
| 2026-04-16 05:18 | 9.47159 | 100.28804 | 10530 ft | 302 kts | 8° |
| 2026-04-16 05:18 | 9.49219 | 100.29044 | 10244 ft | 296 kts | 8° |
| 2026-04-16 05:18 | 9.51314 | 100.29288 | 10140 ft | 305 kts | 8° |
| 2026-04-16 05:18 | 9.53408 | 100.29531 | 10004 ft | 299 kts | 8° |
| 2026-04-16 05:19 | 9.55440 | 100.29767 | 9888 ft | 287 kts | 8° |
| 2026-04-16 05:19 | 9.57374 | 100.29932 | 9739 ft | 271 kts | 1° |
| 2026-04-16 05:19 | 9.59229 | 100.29922 | 9434 ft | 264 kts | 1° |
| 2026-04-16 05:19 | 9.61051 | 100.29919 | 8927 ft | 261 kts | 1° |
| 2026-04-16 05:20 | 9.62820 | 100.29919 | 8695 ft | 246 kts | 2° |
| 2026-04-16 05:20 | 9.64472 | 100.29919 | 8555 ft | 229 kts | 2° |
| 2026-04-16 05:20 | 9.66010 | 100.29919 | 8279 ft | 217 kts | 2° |
| 2026-04-16 05:20 | 9.67531 | 100.29921 | 7703 ft | 220 kts | 2° |
| 2026-04-16 05:21 | 9.69052 | 100.29923 | 7238 ft | 217 kts | 2° |
| 2026-04-16 05:21 | 9.70555 | 100.29882 | 7040 ft | 219 kts | 353° |
| 2026-04-16 05:21 | 9.71954 | 100.29326 | 6984 ft | 222 kts | 327° |
| 2026-04-16 05:21 | 9.73019 | 100.28190 | 6947 ft | 225 kts | 301° |
| 2026-04-16 05:22 | 9.73508 | 100.26708 | 6784 ft | 221 kts | 275° |
| 2026-04-16 05:22 | 9.73517 | 100.25155 | 6406 ft | 221 kts | 269° |
| 2026-04-16 05:22 | 9.73499 | 100.23599 | 5983 ft | 220 kts | 269° |
| 2026-04-16 05:22 | 9.73490 | 100.22055 | 5574 ft | 218 kts | 269° |
| 2026-04-16 05:23 | 9.73487 | 100.20524 | 5175 ft | 216 kts | 269° |
| 2026-04-16 05:23 | 9.73488 | 100.19010 | 4823 ft | 212 kts | 269° |
| 2026-04-16 05:23 | 9.73490 | 100.17563 | 4701 ft | 198 kts | 270° |
| 2026-04-16 05:23 | 9.73492 | 100.16223 | 4624 ft | 181 kts | 269° |
| 2026-04-16 05:24 | 9.73494 | 100.15022 | 4520 ft | 162 kts | 269° |
| 2026-04-16 05:24 | 9.73495 | 100.13966 | 4379 ft | 151 kts | 269° |
| 2026-04-16 05:24 | 9.73496 | 100.12914 | 4120 ft | 148 kts | 269° |
| 2026-04-16 05:24 | 9.73496 | 100.11873 | 3856 ft | 147 kts | 269° |
| 2026-04-16 05:25 | 9.73318 | 100.10869 | 3592 ft | 145 kts | 239° |
| 2026-04-16 05:25 | 9.72606 | 100.10196 | 3338 ft | 140 kts | 202° |
| 2026-04-16 05:25 | 9.71740 | 100.09820 | 3286 ft | 138 kts | 202° |
| 2026-04-16 05:25 | 9.70825 | 100.09407 | 3255 ft | 146 kts | 203° |
| 2026-04-16 05:26 | 9.69921 | 100.08989 | 3187 ft | 140 kts | 203° |
| 2026-04-16 05:26 | 9.69044 | 100.08582 | 2974 ft | 139 kts | 203° |
| 2026-04-16 05:26 | 9.68160 | 100.08172 | 2698 ft | 140 kts | 203° |
| 2026-04-16 05:26 | 9.67277 | 100.07764 | 2406 ft | 139 kts | 202° |
| 2026-04-16 05:27 | 9.66401 | 100.07360 | 2179 ft | 136 kts | 202° |
| 2026-04-16 05:27 | 9.65514 | 100.06968 | 1902 ft | 139 kts | 201° |
| 2026-04-16 05:27 | 9.64631 | 100.06594 | 1588 ft | 139 kts | 201° |
| 2026-04-16 05:27 | 9.63746 | 100.06187 | 1268 ft | 138 kts | 202° |
| 2026-04-16 05:28 | 9.62875 | 100.05821 | 1060 ft | 135 kts | 195° |
| 2026-04-16 05:28 | 9.61951 | 100.05620 | 894 ft | 140 kts | 181° |
| 2026-04-16 05:28 | 9.60954 | 100.05634 | 829 ft | 137 kts | 173° |
| 2026-04-16 05:28 | 9.60012 | 100.05709 | 693 ft | 138 kts | 172° |
| 2026-04-16 05:29 | 9.59063 | 100.05820 | 638 ft | 138 kts | 169° |
| 2026-04-16 05:29 | 9.58137 | 100.05943 | 507 ft | 132 kts | 173° |
| 2026-04-16 05:29 | 9.57225 | 100.06025 | 381 ft | 131 kts | 173° |
| 2026-04-16 05:29 | 9.56332 | 100.06103 | 224 ft | 129 kts | 173° |
| 2026-04-16 05:30 | 9.55443 | 100.06187 | 70 ft | 124 kts | 171° |
| 2026-04-16 05:30 | 9.54753 | 100.06262 | 56 ft | 60 kts | 175° |
| 2026-04-16 05:30 | 9.54480 | 100.06280 | 54 ft | 29 kts | 173° |
| 2026-04-16 05:30 | 9.54294 | 100.06298 | 52 ft | 24 kts | 176° |
| 2026-04-16 05:31 | 9.54134 | 100.06314 | 55 ft | 22 kts | 174° |
| 2026-04-16 05:31 | 9.54001 | 100.06326 | 54 ft | 15 kts | 178° |
| 2026-04-16 05:31 | 9.53910 | 100.06317 | 55 ft | 14 kts | 189° |
| 2026-04-16 05:31 | 9.53847 | 100.06332 | 57 ft | 7 kts | 99° |
| 2026-04-16 05:32 | 9.53881 | 100.06339 | 59 ft | 7 kts | 348° |
| 2026-04-16 05:32 | 9.53945 | 100.06326 | 50 ft | 12 kts | 350° |
| 2026-04-16 05:32 | 9.54039 | 100.06319 | 56 ft | 15 kts | 358° |
| 2026-04-16 05:32 | 9.54154 | 100.06309 | 56 ft | 17 kts | 355° |
| 2026-04-16 05:33 | 9.54269 | 100.06299 | 57 ft | 17 kts | 353° |
| 2026-04-16 05:33 | 9.54397 | 100.06285 | 54 ft | 20 kts | 355° |
| 2026-04-16 05:33 | 9.54540 | 100.06273 | 54 ft | 22 kts | 354° |
| 2026-04-16 05:33 | 9.54698 | 100.06259 | 62 ft | 24 kts | 355° |
| 2026-04-16 05:34 | 9.54843 | 100.06244 | 63 ft | 13 kts | 353° |
| 2026-04-16 05:34 | 9.54912 | 100.06237 | 59 ft | 7 kts | 354° |
| 2026-04-16 05:34 | 9.54971 | 100.06233 | 60 ft | 8 kts | 3° |
| 2026-04-16 05:34 | 9.55011 | 100.06270 | 63 ft | 9 kts | 77° |
| 2026-04-16 05:35 | 9.55015 | 100.06288 | 63 ft | 4 kts | 76° |
| 2026-04-16 05:35 | 9.55048 | 100.06308 | 63 ft | 7 kts | 6° |
| 2026-04-16 05:35 | 9.55061 | 100.06309 | 65 ft | 3 kts | 2° |
| 2026-04-16 05:35 | 9.55078 | 100.06315 | 65 ft | 3 kts | 47° |
| 2026-04-16 05:36 | 9.55079 | 100.06332 | 62 ft | 3 kts | 90° |
| 2026-04-16 05:36 | 9.55081 | 100.06343 | 63 ft | 0 kts | 84° |